createdAt,value
2024-03-09T00:01:12.369Z,28.37
2024-03-09T00:03:39.005Z,28.44
2024-03-09T00:06:05.617Z,26.72
2024-03-09T00:08:32.173Z,28.05
2024-03-09T00:10:58.807Z,27.75
2024-03-09T00:13:25.451Z,27.99
2024-03-09T00:15:52.037Z,30.85
2024-03-09T00:18:26.055Z,30.28
2024-03-09T00:21:00.204Z,29.80
2024-03-09T00:23:26.752Z,30.53
2024-03-09T00:25:53.363Z,29.35
2024-03-09T00:28:19.963Z,28.89
2024-03-09T00:30:46.559Z,29.75
2024-03-09T00:33:13.184Z,29.41
2024-03-09T00:35:39.790Z,29.77
2024-03-09T00:38:06.995Z,29.25
2024-03-09T00:40:34.025Z,29.48
2024-03-09T00:43:00.746Z,29.59
2024-03-09T00:45:27.419Z,29.98
2024-03-09T00:47:54.226Z,30.22
2024-03-09T00:50:20.836Z,30.50
2024-03-09T00:52:47.656Z,29.69
2024-03-09T00:55:14.303Z,29.97
2024-03-09T00:57:40.879Z,29.61
2024-03-09T01:00:07.445Z,29.64
2024-03-09T01:02:34.001Z,28.32
2024-03-09T01:05:00.771Z,28.29
2024-03-09T01:07:27.505Z,28.64
2024-03-09T01:09:54.186Z,29.04
2024-03-09T01:12:20.850Z,29.20
2024-03-09T01:14:47.440Z,28.70
2024-03-09T01:17:14.058Z,28.53
2024-03-09T01:19:40.856Z,29.58
2024-03-09T01:22:07.469Z,28.84
2024-03-09T01:24:34.032Z,29.34
2024-03-09T01:27:00.741Z,28.64
2024-03-09T01:29:27.416Z,28.44
2024-03-09T01:31:54.002Z,28.98
2024-03-09T01:34:20.587Z,29.40
2024-03-09T01:36:47.157Z,29.71
2024-03-09T01:39:13.725Z,29.48
2024-03-09T01:41:40.295Z,29.05
2024-03-09T01:44:06.989Z,28.50
2024-03-09T01:46:33.592Z,28.96
2024-03-09T01:49:00.197Z,29.79
2024-03-09T01:51:26.736Z,30.82
2024-03-09T01:53:53.352Z,30.92
2024-03-09T01:56:19.934Z,30.86
2024-03-09T01:58:46.558Z,30.78
2024-03-09T02:01:13.197Z,30.91
2024-03-09T02:03:39.756Z,30.05
2024-03-09T02:06:06.338Z,30.85
2024-03-09T02:08:32.883Z,31.30
2024-03-09T02:10:59.482Z,30.51
2024-03-09T02:13:26.271Z,30.87
2024-03-09T02:15:52.831Z,30.58
2024-03-09T02:18:19.395Z,30.98
2024-03-09T02:20:45.964Z,31.86
2024-03-09T02:23:12.553Z,32.35
2024-03-09T02:25:39.321Z,32.10
2024-03-09T02:28:05.925Z,31.72
2024-03-09T02:30:32.570Z,31.04
2024-03-09T02:32:59.184Z,31.02
2024-03-09T02:35:25.833Z,31.00
2024-03-09T02:37:52.450Z,31.48
2024-03-09T02:40:19.014Z,30.86
2024-03-09T02:42:45.562Z,31.12
2024-03-09T02:45:12.111Z,31.41
2024-03-09T02:47:38.680Z,32.36
2024-03-09T02:50:05.546Z,31.82
2024-03-09T02:52:32.310Z,32.05
2024-03-09T02:54:58.912Z,31.74
2024-03-09T02:57:25.493Z,31.99
2024-03-09T02:59:52.064Z,31.95
2024-03-09T03:02:18.619Z,32.30
2024-03-09T03:04:45.335Z,32.19
2024-03-09T03:07:11.970Z,32.79
2024-03-09T03:09:38.512Z,33.66
2024-03-09T03:12:05.102Z,32.77
2024-03-09T03:14:31.716Z,32.70
2024-03-09T03:16:58.291Z,32.89
2024-03-09T03:19:24.843Z,32.68
2024-03-09T03:21:51.396Z,31.55
2024-03-09T03:24:17.967Z,32.13
2024-03-09T03:26:44.541Z,32.12
2024-03-09T03:29:14.045Z,31.41
2024-03-09T03:31:40.755Z,31.74
2024-03-09T03:34:07.421Z,31.81
2024-03-09T03:36:33.979Z,32.10
2024-03-09T03:39:00.589Z,31.03
2024-03-09T03:41:27.131Z,30.40
2024-03-09T03:43:53.779Z,31.12
2024-03-09T03:46:20.564Z,31.78
2024-03-09T03:48:47.654Z,33.40
2024-03-09T03:51:14.871Z,32.76
2024-03-09T03:53:41.431Z,33.58
2024-03-09T03:56:08.122Z,34.64
2024-03-09T03:58:34.742Z,35.24
2024-03-09T04:01:01.341Z,34.43
2024-03-09T04:03:28.032Z,34.49
2024-03-09T04:05:54.584Z,34.90
2024-03-09T04:08:21.242Z,32.89
2024-03-09T04:10:48.176Z,31.98
2024-03-09T04:13:14.927Z,34.26
2024-03-09T04:15:41.485Z,33.59
2024-03-09T04:18:08.093Z,31.76
2024-03-09T04:20:34.685Z,30.92
2024-03-09T04:23:01.362Z,30.76
2024-03-09T04:25:28.070Z,30.26
2024-03-09T04:27:54.633Z,30.32
2024-03-09T04:30:21.185Z,29.29
2024-03-09T04:32:47.810Z,28.80
2024-03-09T04:35:14.495Z,28.83
2024-03-09T04:37:41.178Z,29.20
2024-03-09T04:40:07.774Z,30.25
2024-03-09T04:42:34.370Z,29.86
2024-03-09T04:45:00.960Z,28.84
2024-03-09T04:47:27.571Z,28.89
2024-03-09T04:49:54.178Z,28.28
2024-03-09T04:52:20.732Z,28.08
2024-03-09T04:54:47.349Z,27.45
2024-03-09T04:57:13.927Z,26.19
2024-03-09T04:59:40.493Z,27.51
2024-03-09T05:02:07.140Z,27.74
2024-03-09T05:04:33.822Z,27.31
2024-03-09T05:07:00.391Z,26.43
2024-03-09T05:09:26.974Z,27.40
2024-03-09T05:11:53.619Z,27.34
2024-03-09T05:14:20.229Z,26.79
2024-03-09T05:16:46.863Z,28.62
2024-03-09T05:19:13.514Z,26.66
2024-03-09T05:21:40.133Z,27.23
2024-03-09T05:24:06.740Z,26.81
2024-03-09T05:26:33.410Z,26.72
2024-03-09T05:29:00.202Z,25.98
2024-03-09T05:31:26.921Z,25.26
2024-03-09T05:33:53.567Z,25.80
2024-03-09T05:36:20.322Z,25.51
2024-03-09T05:38:46.897Z,26.06
2024-03-09T05:41:13.471Z,26.36
2024-03-09T05:43:40.100Z,27.47
2024-03-09T05:46:06.674Z,26.89
2024-03-09T05:48:33.301Z,26.57
2024-03-09T05:50:59.856Z,29.00
2024-03-09T05:53:26.419Z,29.16
2024-03-09T05:55:53.007Z,28.74
2024-03-09T05:58:19.585Z,26.96
2024-03-09T06:00:46.162Z,26.28
2024-03-09T06:03:12.739Z,27.39
2024-03-09T06:05:39.369Z,27.49
2024-03-09T06:08:05.974Z,27.75
2024-03-09T06:10:36.495Z,28.86
2024-03-09T06:13:05.168Z,29.47
2024-03-09T06:15:31.899Z,32.18
2024-03-09T06:17:59.090Z,31.82
2024-03-09T06:20:25.724Z,31.02
2024-03-09T06:22:52.347Z,30.36
2024-03-09T06:25:18.929Z,30.59
2024-03-09T06:27:45.518Z,30.02
2024-03-09T06:30:12.104Z,29.83
2024-03-09T06:32:38.715Z,30.30
2024-03-09T06:35:05.424Z,30.16
2024-03-09T06:37:32.074Z,29.97
2024-03-09T06:39:58.712Z,29.46
2024-03-09T06:42:25.339Z,31.63
2024-03-09T06:44:51.952Z,31.03
2024-03-09T06:47:18.598Z,32.49
2024-03-09T06:49:45.215Z,31.83
2024-03-09T06:52:11.918Z,31.48
2024-03-09T06:54:38.464Z,32.45
2024-03-09T06:57:05.122Z,31.79
2024-03-09T06:59:31.709Z,30.63
2024-03-09T07:01:58.436Z,30.53
2024-03-09T07:04:24.993Z,31.66
2024-03-09T07:06:51.543Z,31.58
2024-03-09T07:09:18.094Z,31.50
2024-03-09T07:11:45.744Z,31.54
2024-03-09T07:14:12.416Z,30.12
2024-03-09T07:16:39.433Z,30.25
2024-03-09T07:19:08.795Z,30.35
2024-03-09T07:21:35.369Z,29.88
2024-03-09T07:24:01.999Z,30.65
2024-03-09T07:26:28.589Z,31.23
2024-03-09T07:28:55.196Z,31.41
2024-03-09T07:31:21.901Z,31.82
2024-03-09T07:33:48.534Z,32.65
2024-03-09T07:36:15.137Z,33.26
2024-03-09T07:38:41.711Z,34.19
2024-03-09T07:41:08.384Z,34.31
2024-03-09T07:43:37.306Z,34.38
2024-03-09T07:46:04.306Z,34.24
2024-03-09T07:48:30.913Z,33.70
2024-03-09T07:50:57.454Z,33.94
2024-03-09T07:53:24.044Z,33.32
2024-03-09T07:55:50.679Z,34.70
2024-03-09T07:58:25.038Z,34.11
2024-03-09T08:00:53.173Z,33.49
2024-03-09T08:03:19.777Z,34.09
2024-03-09T08:05:46.420Z,32.93
2024-03-09T08:08:13.814Z,33.48
2024-03-09T08:10:41.441Z,33.93
2024-03-09T08:13:07.981Z,32.91
2024-03-09T08:15:34.608Z,33.53
2024-03-09T08:18:01.247Z,33.19
2024-03-09T08:20:27.871Z,33.90
2024-03-09T08:22:54.543Z,34.17
2024-03-09T08:25:21.161Z,33.33
2024-03-09T08:27:47.774Z,33.29
2024-03-09T08:30:14.458Z,34.03
2024-03-09T08:32:41.137Z,33.70
2024-03-09T08:35:07.796Z,34.24
2024-03-09T08:37:34.475Z,35.08
2024-03-09T08:40:01.148Z,34.80
2024-03-09T08:42:27.711Z,35.45
2024-03-09T08:44:56.728Z,36.05
2024-03-09T08:47:24.780Z,35.17
2024-03-09T08:49:51.522Z,35.20
2024-03-09T08:52:18.121Z,36.03
2024-03-09T08:54:44.752Z,36.01
2024-03-09T08:57:11.314Z,35.58
2024-03-09T08:59:37.971Z,35.74
2024-03-09T09:02:04.585Z,35.80
2024-03-09T09:04:31.238Z,33.90
2024-03-09T09:06:57.903Z,33.99
2024-03-09T09:09:24.512Z,34.15
2024-03-09T09:11:51.147Z,35.45
2024-03-09T09:14:17.829Z,34.95
2024-03-09T09:16:44.525Z,34.53
2024-03-09T09:19:11.120Z,35.68
2024-03-09T09:21:37.679Z,35.71
2024-03-09T09:24:04.311Z,35.71
2024-03-09T09:26:30.932Z,35.74
2024-03-09T09:28:57.554Z,37.58
2024-03-09T09:31:24.175Z,37.86
2024-03-09T09:33:50.829Z,37.52
2024-03-09T09:36:17.467Z,39.93
2024-03-09T09:38:44.155Z,37.44
2024-03-09T09:41:10.843Z,36.42
2024-03-09T09:43:37.762Z,36.32
2024-03-09T09:46:05.003Z,37.08
2024-03-09T09:48:31.655Z,37.45
2024-03-09T09:50:58.231Z,36.11
2024-03-09T09:53:28.268Z,37.41
2024-03-09T09:55:56.123Z,36.45
2024-03-09T09:58:22.841Z,36.15
2024-03-09T10:00:49.591Z,34.96
2024-03-09T10:03:16.174Z,35.40
2024-03-09T10:05:42.844Z,34.54
2024-03-09T10:08:09.702Z,35.01
2024-03-09T10:10:36.400Z,33.48
2024-03-09T10:13:03.198Z,33.29
2024-03-09T10:15:29.800Z,33.79
2024-03-09T10:17:56.560Z,34.02
2024-03-09T10:20:23.191Z,32.92
2024-03-09T10:22:49.838Z,32.07
2024-03-09T10:25:16.456Z,30.90
2024-03-09T10:27:43.023Z,29.21
2024-03-09T10:30:09.592Z,26.77
2024-03-09T10:32:36.240Z,27.30
2024-03-09T10:35:03.010Z,30.31
2024-03-09T10:37:29.636Z,30.26
2024-03-09T10:39:56.291Z,28.20
2024-03-09T10:42:22.934Z,30.87
2024-03-09T10:44:49.591Z,32.53
2024-03-09T10:47:16.326Z,33.37
2024-03-09T10:49:43.221Z,32.19
2024-03-09T10:52:09.974Z,30.84
2024-03-09T10:54:36.714Z,31.75
2024-03-09T10:57:03.221Z,31.42
2024-03-09T10:59:29.677Z,31.00
2024-03-09T11:01:56.172Z,31.38
2024-03-09T11:04:22.650Z,32.88
2024-03-09T11:06:51.694Z,32.83
2024-03-09T11:09:18.125Z,31.55
2024-03-09T11:11:44.582Z,31.43
2024-03-09T11:14:11.087Z,30.38
2024-03-09T11:16:37.659Z,31.05
2024-03-09T11:19:04.232Z,31.33
2024-03-09T11:21:30.685Z,30.30
2024-03-09T11:23:57.193Z,33.19
2024-03-09T11:26:23.714Z,30.34
2024-03-09T11:28:50.189Z,31.28
2024-03-09T11:31:16.816Z,30.41
2024-03-09T11:33:43.844Z,31.28
2024-03-09T11:36:11.181Z,29.82
2024-03-09T11:38:37.798Z,30.82
2024-03-09T11:41:07.453Z,30.78
2024-03-09T11:43:33.954Z,31.31
2024-03-09T11:46:00.394Z,31.28
2024-03-09T11:48:26.845Z,30.90
2024-03-09T11:50:53.295Z,30.23
2024-03-09T11:53:19.748Z,30.11
2024-03-09T11:55:46.393Z,30.44
2024-03-09T11:58:12.962Z,31.87
2024-03-09T12:00:39.660Z,33.55
2024-03-09T12:03:06.235Z,32.64
2024-03-09T12:05:32.824Z,32.49
2024-03-09T12:07:59.529Z,35.03
2024-03-09T12:10:26.178Z,32.82
2024-03-09T12:12:52.765Z,32.83
2024-03-09T12:15:19.455Z,32.86
2024-03-09T12:17:46.088Z,33.99
2024-03-09T12:20:12.725Z,35.95
2024-03-09T12:22:39.639Z,34.17
2024-03-09T12:25:06.254Z,30.92
2024-03-09T12:27:32.895Z,30.14
2024-03-09T12:29:59.479Z,31.64
2024-03-09T12:32:26.299Z,30.92
2024-03-09T12:34:52.951Z,30.93
2024-03-09T12:37:19.608Z,32.47
2024-03-09T12:39:46.291Z,30.28
2024-03-09T12:42:12.875Z,29.73
2024-03-09T12:44:39.876Z,29.88
2024-03-09T12:47:06.761Z,29.66
2024-03-09T12:49:33.579Z,30.67
2024-03-09T12:52:00.203Z,30.42
2024-03-09T12:54:26.815Z,30.05
2024-03-09T12:56:53.447Z,31.12
2024-03-09T12:59:20.106Z,31.14
2024-03-09T13:01:46.854Z,32.15
2024-03-09T13:04:13.441Z,31.22
2024-03-09T13:06:40.110Z,33.21
2024-03-09T13:09:06.828Z,33.75
2024-03-09T13:11:33.484Z,33.64
2024-03-09T13:14:00.193Z,32.92
2024-03-09T13:16:26.882Z,32.57
2024-03-09T13:18:53.444Z,33.77
2024-03-09T13:21:20.061Z,33.21
2024-03-09T13:23:46.651Z,32.34
2024-03-09T13:26:13.294Z,32.77
2024-03-09T13:28:40.054Z,33.57
2024-03-09T13:31:06.690Z,33.74
2024-03-09T13:33:33.287Z,33.61
2024-03-09T13:36:00.165Z,33.35
2024-03-09T13:38:26.778Z,34.37
2024-03-09T13:40:53.428Z,34.02
2024-03-09T13:43:20.132Z,33.61
2024-03-09T13:45:46.788Z,32.74
2024-03-09T13:48:13.437Z,33.00
2024-03-09T13:50:40.045Z,32.85
2024-03-09T13:53:06.910Z,32.56
2024-03-09T13:55:33.810Z,33.43
2024-03-09T13:58:00.458Z,33.47
2024-03-09T14:00:27.028Z,32.38
2024-03-09T14:02:53.652Z,30.64
2024-03-09T14:05:20.339Z,29.57
2024-03-09T14:07:47.062Z,31.86
2024-03-09T14:10:13.739Z,33.03
2024-03-09T14:12:40.298Z,32.30
2024-03-09T14:15:06.911Z,30.39
2024-03-09T14:17:33.498Z,31.73
2024-03-09T14:20:00.155Z,32.49
2024-03-09T14:22:29.772Z,32.59
2024-03-09T14:24:58.113Z,33.99
2024-03-09T14:27:25.038Z,33.72
2024-03-09T14:29:51.620Z,34.77
2024-03-09T14:32:18.474Z,33.99
2024-03-09T14:34:45.175Z,32.92
2024-03-09T14:37:13.226Z,32.17
2024-03-09T14:39:39.781Z,31.93
2024-03-09T14:42:06.374Z,31.35
2024-03-09T14:44:32.958Z,31.54
2024-03-09T14:46:59.693Z,31.31
2024-03-09T14:49:26.324Z,31.45
2024-03-09T14:51:52.938Z,31.90
2024-03-09T14:54:19.611Z,31.68
2024-03-09T14:56:46.340Z,32.13
2024-03-09T14:59:13.055Z,31.07
2024-03-09T15:01:42.560Z,31.85
2024-03-09T15:04:09.260Z,31.84
2024-03-09T15:06:35.859Z,31.94
2024-03-09T15:09:02.456Z,32.06
2024-03-09T15:11:29.201Z,32.36
2024-03-09T15:13:55.925Z,31.97
2024-03-09T15:16:22.617Z,31.50
2024-03-09T15:18:49.229Z,31.46
2024-03-09T15:21:18.905Z,32.58
2024-03-09T15:23:45.502Z,32.07
2024-03-09T15:26:12.114Z,32.02
2024-03-09T15:28:41.246Z,32.61
2024-03-09T15:31:08.304Z,31.80
2024-03-09T15:33:34.926Z,31.67
2024-03-09T15:36:01.562Z,32.76
2024-03-09T15:38:29.220Z,31.85
2024-03-09T15:40:56.161Z,33.03
2024-03-09T15:43:22.826Z,32.92
2024-03-09T15:45:49.386Z,32.02
2024-03-09T15:48:16.023Z,32.42
2024-03-09T15:50:42.641Z,31.78
2024-03-09T15:53:09.425Z,32.52
2024-03-09T15:55:36.128Z,31.91
2024-03-09T15:58:03.049Z,32.61
2024-03-09T16:00:29.596Z,32.88
2024-03-09T16:02:58.093Z,33.82
2024-03-09T16:05:25.928Z,33.10
2024-03-09T16:07:52.786Z,32.50
2024-03-09T16:10:19.523Z,32.75
2024-03-09T16:12:46.102Z,31.58
2024-03-09T16:15:12.665Z,31.93
2024-03-09T16:17:39.249Z,32.50
2024-03-09T16:20:05.926Z,32.46
2024-03-09T16:22:32.580Z,32.92
2024-03-09T16:24:59.155Z,33.06
2024-03-09T16:27:25.747Z,32.84
2024-03-09T16:29:52.312Z,32.82
2024-03-09T16:32:19.165Z,34.31
2024-03-09T16:34:45.915Z,34.06
2024-03-09T16:37:12.528Z,32.33
2024-03-09T16:39:39.147Z,34.69
2024-03-09T16:42:05.734Z,32.69
2024-03-09T16:44:32.334Z,32.24
2024-03-09T16:46:59.062Z,31.75
2024-03-09T16:49:25.648Z,33.01
2024-03-09T16:51:52.490Z,32.80
2024-03-09T16:54:19.058Z,32.88
2024-03-09T16:56:45.638Z,32.72
2024-03-09T16:59:12.223Z,33.91
2024-03-09T17:01:38.845Z,32.76
2024-03-09T17:04:05.469Z,32.76
2024-03-09T17:06:32.038Z,32.35
2024-03-09T17:08:58.700Z,32.04
2024-03-09T17:11:25.328Z,32.98
2024-03-09T17:13:51.954Z,33.11
2024-03-09T17:16:19.523Z,32.60
2024-03-09T17:18:46.389Z,32.20
2024-03-09T17:21:12.958Z,32.73
2024-03-09T17:23:39.670Z,32.43
2024-03-09T17:26:06.088Z,33.43
2024-03-09T17:28:32.702Z,32.81
2024-03-09T17:30:59.216Z,31.40
2024-03-09T17:33:25.989Z,32.84
2024-03-09T17:35:52.439Z,33.07
2024-03-09T17:38:19.002Z,33.95
2024-03-09T17:40:45.465Z,32.58
2024-03-09T17:43:11.912Z,32.19
2024-03-09T17:45:38.459Z,32.82
2024-03-09T17:48:04.989Z,32.45
2024-03-09T17:50:31.422Z,30.32
2024-03-09T17:52:57.863Z,29.51
2024-03-09T17:55:24.352Z,28.07
2024-03-09T17:57:51.022Z,26.66
2024-03-09T18:00:17.426Z,29.22
2024-03-09T18:02:43.855Z,32.27
2024-03-09T18:05:10.448Z,31.52
2024-03-09T18:07:36.906Z,33.81
2024-03-09T18:10:03.352Z,32.47
2024-03-09T18:12:29.832Z,29.63
2024-03-09T18:14:56.312Z,29.03
2024-03-09T18:17:22.840Z,29.95
2024-03-09T18:19:49.306Z,29.71
2024-03-09T18:22:15.750Z,29.31
2024-03-09T18:24:42.404Z,30.22
2024-03-09T18:27:09.075Z,30.52
2024-03-09T18:29:35.709Z,30.38
2024-03-09T18:32:02.383Z,30.91
2024-03-09T18:34:28.968Z,31.20
2024-03-09T18:36:55.603Z,32.42
2024-03-09T18:39:22.185Z,28.64
2024-03-09T18:41:48.765Z,26.61
2024-03-09T18:44:15.375Z,24.59
2024-03-09T18:46:42.118Z,24.02
2024-03-09T18:49:08.713Z,28.84
2024-03-09T18:51:35.342Z,31.20
2024-03-09T18:54:01.923Z,30.11
2024-03-09T18:56:28.578Z,34.82
2024-03-09T18:58:55.213Z,30.98
2024-03-09T19:01:21.943Z,30.66
2024-03-09T19:03:48.746Z,35.80
2024-03-09T19:06:15.412Z,29.90
2024-03-09T19:08:41.977Z,29.59
2024-03-09T19:11:08.814Z,28.70
2024-03-09T19:13:35.431Z,27.48
2024-03-09T19:16:02.043Z,26.95
2024-03-09T19:18:28.712Z,24.05
2024-03-09T19:20:55.522Z,23.42
2024-03-09T19:23:22.252Z,23.22
2024-03-09T19:25:50.922Z,26.54
2024-03-09T19:28:19.678Z,28.44
2024-03-09T19:30:46.257Z,21.73
2024-03-09T19:33:14.935Z,20.00
2024-03-09T19:35:41.522Z,18.87
2024-03-09T19:38:08.165Z,19.72
2024-03-09T19:40:34.744Z,21.20
2024-03-09T19:43:01.372Z,26.05
2024-03-09T19:45:27.948Z,26.85
2024-03-09T19:47:54.616Z,25.82
2024-03-09T19:50:21.395Z,26.06
2024-03-09T19:52:48.709Z,24.85
2024-03-09T19:55:15.373Z,25.02
2024-03-09T19:57:42.150Z,25.49
2024-03-09T20:00:08.845Z,24.07
2024-03-09T20:02:35.522Z,24.62
2024-03-09T20:05:02.222Z,23.38
2024-03-09T20:07:28.804Z,23.85
2024-03-09T20:09:55.413Z,24.59
2024-03-09T20:12:22.145Z,23.49
2024-03-09T20:14:48.803Z,25.73
2024-03-09T20:17:15.380Z,29.51
2024-03-09T20:19:42.006Z,32.08
2024-03-09T20:22:08.616Z,29.10
2024-03-09T20:24:35.202Z,27.65
2024-03-09T20:27:01.798Z,26.41
2024-03-09T20:29:28.447Z,30.05
2024-03-09T20:31:55.064Z,31.70
2024-03-09T20:34:21.948Z,31.50
2024-03-09T20:36:48.509Z,29.81
2024-03-09T20:39:15.131Z,28.38
2024-03-09T20:41:41.727Z,30.32
2024-03-09T20:44:08.390Z,32.86
2024-03-09T20:46:34.999Z,29.44
2024-03-09T20:49:01.741Z,29.51
2024-03-09T20:51:28.297Z,29.70
2024-03-09T20:53:54.941Z,31.24
2024-03-09T20:56:21.726Z,32.55
2024-03-09T20:58:48.425Z,30.64
2024-03-09T21:01:15.122Z,29.89
2024-03-09T21:03:41.851Z,31.15
2024-03-09T21:06:09.793Z,34.62
2024-03-09T21:08:36.702Z,34.27
2024-03-09T21:11:03.445Z,34.07
2024-03-09T21:13:30.043Z,33.37
2024-03-09T21:15:56.650Z,34.43
2024-03-09T21:18:23.350Z,34.37
2024-03-09T21:20:50.081Z,33.15
2024-03-09T21:23:16.689Z,34.60
2024-03-09T21:25:43.373Z,45.56
2024-03-09T21:28:10.085Z,41.74
2024-03-09T21:30:36.828Z,40.06
2024-03-09T21:33:03.695Z,35.45
2024-03-09T21:35:30.323Z,33.24
2024-03-09T21:37:57.068Z,29.71
2024-03-09T21:40:23.754Z,29.54
2024-03-09T21:42:50.319Z,31.00
2024-03-09T21:45:16.923Z,30.14
2024-03-09T21:47:43.474Z,28.12
2024-03-09T21:50:10.128Z,27.24
2024-03-09T21:52:36.792Z,27.95
2024-03-09T21:55:03.386Z,28.32
2024-03-09T21:57:30.091Z,27.32
2024-03-09T21:59:56.675Z,26.92
2024-03-09T22:02:23.535Z,27.63
2024-03-09T22:04:50.165Z,26.15
2024-03-09T22:07:16.853Z,26.89
2024-03-09T22:09:43.412Z,27.30
2024-03-09T22:12:10.065Z,25.82
2024-03-09T22:14:36.742Z,26.41
2024-03-09T22:17:03.397Z,26.03
2024-03-09T22:19:30.157Z,25.57
2024-03-09T22:21:56.806Z,25.29
2024-03-09T22:24:23.513Z,25.63
2024-03-09T22:26:50.117Z,25.62
2024-03-09T22:29:16.757Z,26.18
2024-03-09T22:31:43.453Z,25.90
2024-03-09T22:34:10.032Z,26.34
2024-03-09T22:36:36.646Z,25.82
2024-03-09T22:39:03.742Z,24.04
2024-03-09T22:41:30.393Z,23.37
2024-03-09T22:43:57.087Z,24.01
2024-03-09T22:46:23.717Z,24.05
2024-03-09T22:48:50.364Z,23.80
2024-03-09T22:51:17.004Z,22.53
2024-03-09T22:53:43.614Z,22.20
2024-03-09T22:56:10.203Z,21.61
2024-03-09T22:58:36.842Z,22.08
2024-03-09T23:01:03.454Z,21.62
2024-03-09T23:03:30.361Z,22.05
2024-03-09T23:05:56.940Z,23.16
2024-03-09T23:08:23.744Z,23.76
2024-03-09T23:10:50.430Z,23.40
2024-03-09T23:13:17.146Z,23.17
2024-03-09T23:15:43.867Z,22.95
2024-03-09T23:18:10.975Z,25.20
2024-03-09T23:20:37.548Z,26.72
2024-03-09T23:23:04.125Z,27.55
2024-03-09T23:25:31.117Z,29.39
2024-03-09T23:27:57.983Z,28.56
2024-03-09T23:30:24.720Z,28.54
2024-03-09T23:32:51.350Z,27.98
2024-03-09T23:35:18.049Z,28.42
2024-03-09T23:37:44.662Z,27.52
2024-03-09T23:40:11.305Z,27.77
2024-03-09T23:42:37.899Z,27.63
2024-03-09T23:45:04.495Z,27.57
2024-03-09T23:47:31.198Z,26.29
2024-03-09T23:49:57.980Z,26.13
2024-03-09T23:52:24.673Z,25.63
2024-03-09T23:54:51.239Z,25.44
2024-03-09T23:57:17.819Z,25.10
2024-03-09T23:59:44.221Z,26.68
